createdAt,value
2022-09-04T00:07:30.512Z,63
2022-09-04T00:17:32.540Z,64
2022-09-04T00:27:35.915Z,65
2022-09-04T00:47:39.511Z,65
2022-09-04T00:57:41.738Z,65
2022-09-04T01:07:44.060Z,66
2022-09-04T01:17:46.242Z,66
2022-09-04T01:27:48.890Z,67
2022-09-04T01:37:50.543Z,68
2022-09-04T01:57:55.552Z,68
2022-09-04T02:18:09.345Z,69
2022-09-04T02:28:11.220Z,70
2022-09-04T02:38:13.612Z,73
2022-09-04T02:48:16.011Z,74
2022-09-04T02:58:18.492Z,75
2022-09-04T03:08:20.338Z,74
2022-09-04T03:18:22.277Z,72
2022-09-04T03:28:24.261Z,73
2022-09-04T03:38:26.095Z,73
2022-09-04T03:48:28.457Z,75
2022-09-04T03:58:30.690Z,76
2022-09-04T04:08:33.276Z,77
2022-09-04T04:18:35.789Z,76
2022-09-04T04:28:37.988Z,76
2022-09-04T04:38:40.260Z,77
2022-09-04T04:48:42.004Z,77
2022-09-04T04:58:44.086Z,77
2022-09-04T05:08:46.044Z,77
2022-09-04T05:18:48.285Z,77
2022-09-04T05:28:51.211Z,77
2022-09-04T05:38:52.902Z,77
2022-09-04T05:48:54.941Z,78
2022-09-04T05:58:56.906Z,78
2022-09-04T06:08:59.085Z,77
2022-09-04T06:19:01.753Z,76
2022-09-04T06:29:05.561Z,75
2022-09-04T06:39:05.739Z,75
2022-09-04T06:59:09.969Z,74
2022-09-04T07:09:11.798Z,74
2022-09-04T07:19:14.438Z,73
2022-09-04T07:29:16.806Z,73
2022-09-04T07:39:18.773Z,72
2022-09-04T07:49:21.156Z,73
2022-09-04T07:59:23.510Z,74
2022-09-04T08:09:26.022Z,71
2022-09-04T08:19:28.327Z,69
2022-09-04T08:29:30.730Z,68
2022-09-04T08:39:33.428Z,66
2022-09-04T08:49:35.157Z,64
2022-09-04T08:59:37.195Z,65
2022-09-04T09:19:42.012Z,62
2022-09-04T09:29:43.753Z,61
2022-09-04T09:39:45.718Z,60
2022-09-04T09:49:47.478Z,59
2022-09-04T09:59:49.505Z,58
2022-09-04T10:09:51.344Z,57
2022-09-04T10:19:53.693Z,55
2022-09-04T10:29:55.426Z,56
2022-09-04T10:39:57.313Z,54
2022-09-04T10:49:59.012Z,54
2022-09-04T11:00:01.584Z,53
2022-09-04T11:10:03.776Z,52
2022-09-04T11:20:06.336Z,49
2022-09-04T11:30:08.151Z,51
2022-09-04T11:40:10.252Z,48
2022-09-04T11:50:11.958Z,46
2022-09-04T12:00:14.217Z,46
2022-09-04T12:10:16.467Z,44
2022-09-04T12:20:18.819Z,45
2022-09-04T12:30:21.036Z,44
2022-09-04T12:40:23.423Z,44
2022-09-04T12:50:25.628Z,42
2022-09-04T13:00:28.187Z,43
2022-09-04T13:10:30.180Z,45
2022-09-04T13:20:32.051Z,45
2022-09-04T13:30:33.907Z,45
2022-09-04T13:40:35.648Z,44
2022-09-04T13:50:37.690Z,43
2022-09-04T14:00:39.519Z,42
2022-09-04T14:10:41.908Z,42
2022-09-04T14:20:44.456Z,42
2022-09-04T14:30:46.935Z,42
2022-09-04T14:40:48.884Z,42
2022-09-04T14:50:50.809Z,43
2022-09-04T15:00:53.339Z,42
2022-09-04T15:10:55.473Z,42
2022-09-04T15:20:57.561Z,41
2022-09-04T15:30:59.722Z,42
2022-09-04T15:41:16.901Z,42
2022-09-04T15:51:04.399Z,42
2022-09-04T16:01:06.582Z,42
2022-09-04T16:11:08.980Z,43
2022-09-04T16:21:10.739Z,42
2022-09-04T16:31:13.254Z,43
2022-09-04T16:41:15.514Z,43
2022-09-04T16:51:33.308Z,43
2022-09-04T17:11:22.550Z,43
2022-09-04T17:22:33.262Z,44
2022-09-04T17:31:27.605Z,45
2022-09-04T17:41:35.317Z,46
2022-09-04T18:11:35.310Z,48
2022-09-04T18:36:02.724Z,50
2022-09-04T18:43:20.869Z,50
2022-09-04T18:51:44.979Z,51
2022-09-04T19:01:47.340Z,53
2022-09-04T19:11:49.724Z,55
2022-09-04T19:31:54.690Z,57
2022-09-04T19:45:58.339Z,59
2022-09-04T19:53:20.588Z,61
2022-09-04T20:02:03.155Z,61
2022-09-04T20:12:02.532Z,61
2022-09-04T20:22:04.814Z,61
2022-09-04T20:42:08.788Z,64
2022-09-04T20:52:47.617Z,65
2022-09-04T21:03:16.769Z,65
2022-09-04T21:12:15.291Z,68
2022-09-04T21:22:21.023Z,71
2022-09-04T21:32:19.267Z,72
2022-09-04T21:42:21.353Z,73
2022-09-04T21:52:23.141Z,73
2022-09-04T22:02:50.958Z,73
2022-09-04T22:13:28.129Z,74
2022-09-04T22:22:29.826Z,74
2022-09-04T22:32:31.856Z,74
2022-09-04T22:42:33.909Z,75
2022-09-04T22:52:36.031Z,75
2022-09-04T23:03:06.938Z,75
2022-09-04T23:32:45.213Z,78
2022-09-04T23:42:47.759Z,80
2022-09-04T23:52:50.305Z,81
